Waldron Lake, Indiana
Current Conditions -  °F | °C
As of 7:53 PM on Friday 24 Oct 2014 (Local Time) from KGSH Reporting Station
Few Clouds Few Clouds  
Wind Chill: 55°   Ceiling: Unl
Heat Index: 55°   Visibility: 10mi
Dew Point: 49°   Wind: 0mph
Humidity: 80%   Direction: NA
Pressure: 29.98"   Gusts: NA
Location:  41.4818°N, 85.481°W
Report Text: KGSH 242353Z AUTO 00000KT 10SM FEW039 13/09 A2998 RMK AO2 SLP156 T01280094 10183 20122 53002
Loading
Personal Weather Stations






























Interactive Weather Map New forecast layout! Learn more

10-Day Weather Forecast

Advertisements
Track Severe Weather on mobile